Terminal Aerodrome Forecast
Issued by NWS

Home | Current Version | Previous Version | Text Only | Print | Product List | Glossary On
Versions: 1 2 3 4 5 6 7 8 9 10 11 12 13 14
489
FTUS42 TJSJ 062332
TAFIST
TAF
TIST 062332Z 0700/0724 29007KT P6SM VCSH SCT022 BKN040
      TEMPO 0700/0703 VRB10G18KT 6SM SHRA OVC018
     FM071400 14010KT P6SM VCSH SCT024
     FM072300 12008KT P6SM FEW025=

USA.gov is the U.S. government's official web portal to all federal, state and local government web resources and services.